createdAt,value
2018-12-29T00:03:21.803Z,96.55
2018-12-29T00:08:26.886Z,96.68
2018-12-29T00:13:32.248Z,96.29
2018-12-29T00:18:38.237Z,96.25
2018-12-29T00:23:43.324Z,95.99
2018-12-29T00:28:48.405Z,95.96
2018-12-29T00:33:53.774Z,96.01
2018-12-29T00:38:59.594Z,96.24
2018-12-29T00:44:05.006Z,96.44
2018-12-29T00:49:10.254Z,96.77
2018-12-29T00:54:15.753Z,97.21
2018-12-29T00:59:20.762Z,97.56
2018-12-29T01:04:25.778Z,97.96
2018-12-29T01:09:30.973Z,97.76
2018-12-29T01:14:36.394Z,97.52
2018-12-29T01:19:41.573Z,97.20
2018-12-29T01:24:48.310Z,97.50
2018-12-29T01:29:53.738Z,97.28
2018-12-29T01:34:59.134Z,96.99
2018-12-29T01:40:04.396Z,96.83
2018-12-29T01:45:09.476Z,96.54
2018-12-29T01:50:14.636Z,96.59
2018-12-29T01:55:19.663Z,96.62
2018-12-29T02:00:24.780Z,96.50
2018-12-29T02:05:29.945Z,96.71
2018-12-29T02:10:35.434Z,96.28
2018-12-29T02:15:40.582Z,96.37
2018-12-29T02:20:45.934Z,96.16
2018-12-29T02:25:51.885Z,96.06
2018-12-29T02:30:57.293Z,96.24
2018-12-29T02:36:02.367Z,96.00
2018-12-29T02:41:08.470Z,95.81
2018-12-29T02:46:13.471Z,95.77
2018-12-29T02:51:18.831Z,96.05
2018-12-29T02:56:24.654Z,95.61
2018-12-29T03:01:29.856Z,95.72
2018-12-29T03:06:35.166Z,95.35
2018-12-29T03:11:40.471Z,95.31
2018-12-29T03:16:45.717Z,94.67
2018-12-29T03:21:51.619Z,94.23
2018-12-29T03:26:56.706Z,94.66
2018-12-29T03:32:02.216Z,94.55
2018-12-29T03:37:07.386Z,94.56
2018-12-29T03:42:12.471Z,93.03
2018-12-29T03:47:17.862Z,92.02
2018-12-29T03:52:22.978Z,91.89
2018-12-29T03:57:28.564Z,92.10
2018-12-29T04:02:33.742Z,91.97
2018-12-29T04:07:38.834Z,91.62
2018-12-29T04:12:47.369Z,91.33
2018-12-29T04:17:52.428Z,91.62
2018-12-29T04:22:57.979Z,90.72
2018-12-29T04:28:03.175Z,91.41
2018-12-29T04:33:08.763Z,91.53
2018-12-29T04:38:14.357Z,91.75
2018-12-29T04:43:19.843Z,91.51
2018-12-29T04:48:25.379Z,91.43
2018-12-29T04:53:31.050Z,91.65
2018-12-29T04:58:36.567Z,91.55
2018-12-29T05:03:42.098Z,91.33
2018-12-29T05:08:47.281Z,91.61
2018-12-29T05:13:53.494Z,91.82
2018-12-29T05:18:58.741Z,92.69
2018-12-29T05:24:04.029Z,92.05
2018-12-29T05:29:09.853Z,93.02
2018-12-29T05:34:15.484Z,93.57
2018-12-29T05:39:21.095Z,94.00
2018-12-29T05:44:26.273Z,94.20
2018-12-29T05:49:31.514Z,94.20
2018-12-29T05:54:36.749Z,94.02
2018-12-29T05:59:42.479Z,93.95
2018-12-29T06:04:47.706Z,93.68
2018-12-29T06:09:52.915Z,94.11
2018-12-29T06:14:58.381Z,94.56
2018-12-29T06:20:03.609Z,95.22
2018-12-29T06:25:08.794Z,95.23
2018-12-29T06:30:14.066Z,95.89
2018-12-29T06:35:19.287Z,96.51
2018-12-29T06:40:25.099Z,97.08
2018-12-29T06:45:30.294Z,97.47
2018-12-29T06:50:36.011Z,97.73
2018-12-29T06:55:41.185Z,97.91
2018-12-29T07:00:46.467Z,97.73
2018-12-29T07:05:51.667Z,97.88
2018-12-29T07:10:57.233Z,98.09
2018-12-29T07:16:02.438Z,98.11
2018-12-29T07:21:07.618Z,98.23
2018-12-29T07:26:12.809Z,98.26
2018-12-29T07:31:18.458Z,98.41
2018-12-29T07:36:23.646Z,98.28
2018-12-29T07:41:29.134Z,97.93
2018-12-29T07:46:34.954Z,97.83
2018-12-29T07:51:40.969Z,97.91
2018-12-29T07:56:46.181Z,97.82
2018-12-29T08:01:51.458Z,97.53
2018-12-29T08:06:57.148Z,97.56
2018-12-29T08:12:02.356Z,97.15
2018-12-29T08:17:07.921Z,97.21
2018-12-29T08:22:13.217Z,97.09
2018-12-29T08:27:18.701Z,97.11
2018-12-29T08:32:24.747Z,97.28
2018-12-29T08:37:30.352Z,97.46
2018-12-29T08:42:35.975Z,97.59
2018-12-29T08:47:41.231Z,97.30
2018-12-29T08:52:46.738Z,97.13
2018-12-29T08:57:52.411Z,97.35
2018-12-29T09:02:58.392Z,97.50
2018-12-29T09:08:03.582Z,97.45
2018-12-29T09:13:08.757Z,97.65
2018-12-29T09:18:13.982Z,97.73
2018-12-29T09:23:19.984Z,97.84
2018-12-29T09:28:25.187Z,97.69
2018-12-29T09:33:30.485Z,97.66
2018-12-29T09:38:35.975Z,97.28
2018-12-29T09:43:41.538Z,97.04
2018-12-29T09:48:46.863Z,96.72
2018-12-29T09:53:52.116Z,96.27
2018-12-29T09:58:57.315Z,96.16
2018-12-29T10:04:02.844Z,96.16
2018-12-29T10:09:08.504Z,96.17
2018-12-29T10:14:14.885Z,95.36
2018-12-29T10:19:20.802Z,95.23
2018-12-29T10:24:27.028Z,95.36
2018-12-29T10:29:32.233Z,95.60
2018-12-29T10:34:37.454Z,94.83
2018-12-29T10:39:43.043Z,95.45
2018-12-29T10:44:48.685Z,95.53
2018-12-29T10:49:53.944Z,95.29
2018-12-29T10:54:59.278Z,95.08
2018-12-29T11:00:07.103Z,94.84
2018-12-29T11:05:12.390Z,94.84
2018-12-29T11:10:17.789Z,94.29
2018-12-29T11:15:23.928Z,94.22
2018-12-29T11:20:29.114Z,94.69
2018-12-29T11:25:34.903Z,94.53
2018-12-29T11:30:40.223Z,94.77
2018-12-29T11:35:46.065Z,94.00
2018-12-29T11:40:51.301Z,94.37
2018-12-29T11:45:56.533Z,93.97
2018-12-29T11:51:01.924Z,93.30
2018-12-29T11:56:07.569Z,93.69
2018-12-29T12:01:12.833Z,93.37
2018-12-29T12:06:18.772Z,93.26
2018-12-29T12:11:24.552Z,93.25
2018-12-29T12:16:30.132Z,92.75
2018-12-29T12:21:35.379Z,92.95
2018-12-29T12:26:41.248Z,92.33
2018-12-29T12:31:46.603Z,92.85
2018-12-29T12:36:52.495Z,92.62
2018-12-29T12:41:57.675Z,92.87
2018-12-29T12:47:03.493Z,92.50
2018-12-29T12:52:09.269Z,92.75
2018-12-29T12:57:14.464Z,92.49
2018-12-29T13:02:20.230Z,92.66
2018-12-29T13:07:25.801Z,91.61
2018-12-29T13:12:31.415Z,91.49
2018-12-29T13:17:37.289Z,91.16
2018-12-29T13:22:42.987Z,91.22
2018-12-29T13:27:48.883Z,91.33
2018-12-29T13:32:54.694Z,92.19
2018-12-29T13:38:00.482Z,91.92
2018-12-29T13:43:06.457Z,92.22
2018-12-29T13:48:11.966Z,92.43
2018-12-29T13:53:17.326Z,92.63
2018-12-29T13:58:22.896Z,91.90
2018-12-29T14:03:28.521Z,91.77
2018-12-29T14:08:34.477Z,91.53
2018-12-29T14:13:40.011Z,91.55
2018-12-29T14:18:46.731Z,91.39
2018-12-29T14:23:52.220Z,91.33
2018-12-29T14:28:57.642Z,91.17
2018-12-29T14:34:02.984Z,91.18
2018-12-29T14:39:11.126Z,90.54
2018-12-29T14:44:16.443Z,90.09
2018-12-29T14:49:21.845Z,89.44
2018-12-29T14:54:27.098Z,89.50
2018-12-29T14:59:32.611Z,88.97
2018-12-29T15:04:38.508Z,89.58
2018-12-29T15:09:43.795Z,89.20
2018-12-29T15:14:49.209Z,89.59
2018-12-29T15:19:55.243Z,87.44
2018-12-29T15:25:00.875Z,86.90
2018-12-29T15:30:06.742Z,86.21
2018-12-29T15:35:13.463Z,85.69
2018-12-29T15:40:19.634Z,85.29
2018-12-29T15:45:25.423Z,86.42
2018-12-29T15:50:30.596Z,85.79
2018-12-29T15:55:36.616Z,84.98
2018-12-29T16:00:42.435Z,85.31
2018-12-29T16:05:48.714Z,84.04
2018-12-29T16:10:54.131Z,85.80
2018-12-29T16:16:01.227Z,86.21
2018-12-29T16:21:07.196Z,87.07
2018-12-29T16:26:23.506Z,86.43
2018-12-29T16:31:20.253Z,85.87
2018-12-29T16:36:25.448Z,86.41
2018-12-29T16:41:31.044Z,86.42
2018-12-29T16:46:36.871Z,86.35
2018-12-29T16:51:42.058Z,86.56
2018-12-29T16:56:47.237Z,86.18
2018-12-29T17:01:52.410Z,87.38
2018-12-29T17:06:57.985Z,87.68
2018-12-29T17:12:04.009Z,87.43
2018-12-29T17:17:09.804Z,87.72
2018-12-29T17:22:15.254Z,87.80
2018-12-29T17:27:20.425Z,87.79
2018-12-29T17:32:26.115Z,88.01
2018-12-29T17:37:31.960Z,87.28
2018-12-29T17:42:37.235Z,87.65
2018-12-29T17:47:42.951Z,88.39
2018-12-29T17:52:48.477Z,87.82
2018-12-29T17:57:54.354Z,88.46
2018-12-29T18:02:59.859Z,88.56
2018-12-29T18:08:05.337Z,88.77
2018-12-29T18:13:10.754Z,88.33
2018-12-29T18:18:15.970Z,87.51
2018-12-29T18:23:21.613Z,87.50
2018-12-29T18:28:26.791Z,87.84
2018-12-29T18:33:37.233Z,88.14
2018-12-29T18:38:39.294Z,88.34
2018-12-29T18:43:46.259Z,88.47
2018-12-29T18:48:51.816Z,89.85
2018-12-29T18:53:57.447Z,91.33
2018-12-29T18:59:03.051Z,92.38
2018-12-29T19:04:09.837Z,93.13
2018-12-29T19:09:15.972Z,93.30
2018-12-29T19:14:21.638Z,93.96
2018-12-29T19:19:27.209Z,94.19
2018-12-29T19:24:32.481Z,94.31
2018-12-29T19:29:37.668Z,94.81
2018-12-29T19:34:43.884Z,95.26
2018-12-29T19:39:50.576Z,95.74
2018-12-29T19:44:56.084Z,96.13
2018-12-29T19:50:02.120Z,96.71
2018-12-29T19:55:07.305Z,96.46
2018-12-29T20:00:13.148Z,95.51
2018-12-29T20:05:18.732Z,94.92
2018-12-29T20:10:24.233Z,95.09
2018-12-29T20:15:29.403Z,95.05
2018-12-29T20:20:34.984Z,94.99
2018-12-29T20:25:40.257Z,95.32
2018-12-29T20:30:45.882Z,94.01
2018-12-29T20:35:52.301Z,93.61
2018-12-29T20:40:57.489Z,94.15
2018-12-29T20:46:03.017Z,93.82
2018-12-29T20:51:09.493Z,93.89
2018-12-29T20:56:15.371Z,93.85
2018-12-29T21:01:21.544Z,93.57
2018-12-29T21:06:27.326Z,92.11
2018-12-29T21:11:32.547Z,91.38
2018-12-29T21:16:37.759Z,90.92
2018-12-29T21:21:42.995Z,90.99
2018-12-29T21:26:48.225Z,90.47
2018-12-29T21:31:53.508Z,91.26
2018-12-29T21:37:00.741Z,91.39
2018-12-29T21:42:06.555Z,91.19
2018-12-29T21:47:11.928Z,90.98
2018-12-29T21:52:17.323Z,91.55
2018-12-29T21:57:22.518Z,91.53
2018-12-29T22:02:27.807Z,91.38
2018-12-29T22:07:32.995Z,91.93
2018-12-29T22:12:38.289Z,91.48
2018-12-29T22:17:43.472Z,90.59
2018-12-29T22:22:48.925Z,91.05
2018-12-29T22:27:54.582Z,91.38
2018-12-29T22:33:00.344Z,91.00
2018-12-29T22:38:05.517Z,91.67
2018-12-29T22:43:11.913Z,92.76
2018-12-29T22:48:17.552Z,92.55
2018-12-29T22:53:25.049Z,92.90
2018-12-29T22:58:32.068Z,92.66
2018-12-29T23:03:38.379Z,92.66
2018-12-29T23:08:43.558Z,92.16
2018-12-29T23:13:50.397Z,92.30
2018-12-29T23:18:56.198Z,92.63
2018-12-29T23:24:02.287Z,92.69
2018-12-29T23:29:08.496Z,93.04
2018-12-29T23:34:13.773Z,93.46
2018-12-29T23:39:20.165Z,93.70
2018-12-29T23:44:25.721Z,93.75
2018-12-29T23:49:30.890Z,93.16
2018-12-29T23:54:36.583Z,93.55
2018-12-29T23:59:41.764Z,94.12
